createdAt,value
2019-03-03T00:01:21.920Z,6.77
2019-03-03T00:03:51.392Z,6.78
2019-03-03T00:06:21.112Z,6.76
2019-03-03T00:08:50.917Z,6.79
2019-03-03T00:11:20.377Z,6.83
2019-03-03T00:13:49.838Z,6.83
2019-03-03T00:16:29.058Z,6.86
2019-03-03T00:18:58.542Z,6.80
2019-03-03T00:21:28.004Z,6.83
2019-03-03T00:23:57.528Z,6.88
2019-03-03T00:26:26.977Z,6.93
2019-03-03T00:28:56.460Z,7.03
2019-03-03T00:31:40.226Z,7.11
2019-03-03T00:34:11.311Z,7.12
2019-03-03T00:36:57.126Z,7.33
2019-03-03T00:39:43.047Z,7.36
2019-03-03T00:45:40.276Z,7.59
2019-03-03T00:48:17.329Z,7.66
2019-03-03T00:50:51.741Z,7.71
2019-03-03T00:53:25.482Z,7.72
2019-03-03T00:56:02.627Z,7.75
2019-03-03T00:58:36.439Z,7.70
2019-03-03T01:01:07.980Z,7.68
2019-03-03T01:03:39.137Z,7.77
2019-03-03T01:06:10.422Z,7.82
2019-03-03T01:08:44.391Z,7.87
2019-03-03T01:11:31.932Z,7.89
2019-03-03T01:14:18.153Z,7.89
2019-03-03T01:16:55.004Z,7.94
2019-03-03T01:19:26.678Z,7.97
2019-03-03T01:22:06.323Z,7.90
2019-03-03T01:24:42.894Z,7.95
2019-03-03T01:27:12.675Z,7.89
2019-03-03T01:29:42.142Z,7.93
2019-03-03T01:32:12.028Z,8.07
2019-03-03T01:34:41.484Z,8.12
2019-03-03T01:37:10.931Z,8.19
2019-03-03T01:39:40.411Z,8.30
2019-03-03T01:42:09.937Z,8.27
2019-03-03T01:44:39.730Z,8.21
2019-03-03T01:47:09.255Z,8.16
2019-03-03T01:49:38.841Z,8.13
2019-03-03T01:52:08.342Z,8.09
2019-03-03T01:54:37.913Z,8.05
2019-03-03T01:57:07.367Z,8.19
2019-03-03T01:59:36.953Z,8.39
2019-03-03T02:02:07.412Z,8.56
2019-03-03T02:04:37.051Z,8.64
2019-03-03T02:07:06.679Z,8.80
2019-03-03T02:09:36.403Z,8.79
2019-03-03T02:12:06.294Z,8.76
2019-03-03T02:14:36.037Z,8.75
2019-03-03T02:17:07.347Z,8.82
2019-03-03T02:19:37.004Z,8.78
2019-03-03T02:22:06.860Z,8.81
2019-03-03T02:24:36.427Z,8.83
2019-03-03T02:27:06.123Z,8.89
2019-03-03T02:29:35.685Z,8.86
2019-03-03T02:32:06.622Z,8.80
2019-03-03T02:34:36.611Z,8.81
2019-03-03T02:37:06.065Z,8.76
2019-03-03T02:39:35.529Z,8.76
2019-03-03T02:42:05.357Z,8.77
2019-03-03T02:44:34.825Z,8.79
2019-03-03T02:47:04.321Z,8.79
2019-03-03T02:49:33.831Z,8.80
2019-03-03T02:52:03.534Z,8.80
2019-03-03T02:54:33.018Z,8.80
2019-03-03T02:57:02.480Z,8.81
2019-03-03T02:59:32.525Z,8.78
2019-03-03T03:02:01.953Z,8.73
2019-03-03T03:04:31.420Z,8.77
2019-03-03T03:07:02.511Z,8.77
2019-03-03T03:09:33.606Z,8.76
2019-03-03T03:12:04.721Z,8.81
2019-03-03T03:14:38.433Z,8.88
2019-03-03T03:17:09.557Z,8.83
2019-03-03T03:19:52.519Z,8.85
2019-03-03T03:22:26.318Z,8.91
2019-03-03T03:25:06.357Z,8.91
2019-03-03T03:27:53.386Z,8.87
2019-03-03T03:30:42.514Z,8.87
2019-03-03T03:33:27.385Z,8.89
2019-03-03T03:36:10.846Z,8.90
2019-03-03T03:38:57.275Z,8.93
2019-03-03T03:41:34.349Z,8.97
2019-03-03T03:44:11.127Z,8.99
2019-03-03T03:46:45.732Z,9.01
2019-03-03T03:49:23.093Z,9.07
2019-03-03T03:51:55.298Z,9.10
2019-03-03T03:54:42.940Z,9.08
2019-03-03T03:57:30.534Z,9.13
2019-03-03T04:00:01.713Z,9.10
2019-03-03T04:02:45.257Z,9.09
2019-03-03T04:05:16.356Z,9.09
2019-03-03T04:08:02.546Z,9.05
2019-03-03T04:10:39.344Z,9.11
2019-03-03T04:13:22.603Z,9.07
2019-03-03T04:15:53.712Z,9.09
2019-03-03T04:18:30.734Z,9.05
2019-03-03T04:21:02.089Z,9.08
2019-03-03T04:23:33.500Z,9.07
2019-03-03T04:26:07.010Z,9.13
2019-03-03T04:28:54.544Z,9.14
2019-03-03T04:31:25.653Z,9.05
2019-03-03T04:34:05.199Z,9.08
2019-03-03T04:36:41.731Z,9.02
2019-03-03T04:42:18.350Z,9.14
2019-03-03T04:44:51.870Z,9.18
2019-03-03T04:47:39.900Z,9.17
2019-03-03T04:50:10.989Z,9.15
2019-03-03T04:52:44.805Z,9.20
2019-03-03T04:55:18.799Z,9.29
2019-03-03T04:58:02.180Z,9.32
2019-03-03T05:00:36.289Z,9.32
2019-03-03T05:03:22.763Z,9.27
2019-03-03T05:06:05.674Z,9.26
2019-03-03T05:08:42.613Z,9.27
2019-03-03T05:11:16.870Z,9.26
2019-03-03T05:13:53.397Z,9.31
2019-03-03T05:16:40.503Z,9.34
2019-03-03T05:19:10.162Z,9.36
2019-03-03T05:21:39.640Z,9.39
2019-03-03T05:24:09.087Z,9.39
2019-03-03T05:26:38.545Z,9.38
2019-03-03T05:29:08.299Z,9.38
2019-03-03T05:31:37.746Z,9.45
2019-03-03T05:34:07.218Z,9.51
2019-03-03T05:36:36.673Z,9.57
2019-03-03T05:39:06.271Z,9.56
2019-03-03T05:41:35.734Z,9.54
2019-03-03T05:44:05.181Z,9.55
2019-03-03T05:46:34.700Z,9.57
2019-03-03T05:49:04.129Z,9.65
2019-03-03T05:51:33.574Z,9.59
2019-03-03T05:54:03.033Z,9.60
2019-03-03T05:56:32.502Z,9.63
2019-03-03T05:59:01.932Z,9.62
2019-03-03T06:01:31.383Z,9.68
2019-03-03T06:04:01.181Z,9.72
2019-03-03T06:06:30.641Z,9.74
2019-03-03T06:09:00.110Z,9.74
2019-03-03T06:11:29.573Z,9.76
2019-03-03T06:13:59.012Z,9.76
2019-03-03T06:16:28.786Z,9.75
2019-03-03T06:18:58.217Z,9.73
2019-03-03T06:21:28.004Z,9.70
2019-03-03T06:23:57.444Z,9.71
2019-03-03T06:26:26.900Z,9.79
2019-03-03T06:28:56.353Z,9.77
2019-03-03T06:31:25.802Z,9.74
2019-03-03T06:33:55.237Z,9.79
2019-03-03T06:36:24.703Z,9.85
2019-03-03T06:38:54.139Z,9.88
2019-03-03T06:41:23.653Z,9.92
2019-03-03T06:43:53.100Z,9.90
2019-03-03T06:46:22.755Z,9.91
2019-03-03T06:48:52.191Z,9.89
2019-03-03T06:51:21.648Z,9.88
2019-03-03T06:53:51.085Z,9.90
2019-03-03T06:56:20.533Z,9.94
2019-03-03T06:58:50.289Z,9.96
2019-03-03T07:04:16.526Z,9.97
2019-03-03T07:06:56.058Z,10.01
2019-03-03T07:09:54.905Z,10.03
2019-03-03T07:12:43.940Z,10.10
2019-03-03T07:15:23.279Z,10.15
2019-03-03T07:18:11.646Z,10.27
2019-03-03T07:20:45.519Z,10.39
2019-03-03T07:23:17.417Z,10.44
2019-03-03T07:25:52.560Z,10.55
2019-03-03T07:28:31.745Z,10.63
2019-03-03T07:30:59.322Z,10.71
2019-03-03T07:33:35.319Z,10.82
2019-03-03T07:36:16.691Z,10.87
2019-03-03T07:38:55.357Z,11.01
2019-03-03T07:41:29.343Z,11.14
2019-03-03T07:44:00.521Z,11.19
2019-03-03T07:46:48.991Z,11.34
2019-03-03T07:49:23.490Z,11.34
2019-03-03T07:51:56.191Z,11.39
2019-03-03T07:54:25.776Z,11.32
2019-03-03T07:57:01.081Z,11.32
2019-03-03T07:59:55.355Z,11.28
2019-03-03T08:02:31.019Z,11.34
2019-03-03T08:08:03.315Z,11.50
2019-03-03T08:10:43.349Z,11.55
2019-03-03T08:13:21.678Z,11.53
2019-03-03T08:16:10.789Z,11.61
2019-03-03T08:18:44.510Z,11.56
2019-03-03T08:21:23.238Z,11.65
2019-03-03T08:23:55.662Z,11.76
2019-03-03T08:26:33.455Z,11.85
2019-03-03T08:29:08.713Z,12.07
2019-03-03T08:31:41.491Z,12.18
2019-03-03T08:34:20.526Z,12.40
2019-03-03T08:36:52.265Z,12.55
2019-03-03T08:39:30.608Z,12.75
2019-03-03T08:42:18.471Z,13.05
2019-03-03T08:44:56.112Z,13.36
2019-03-03T08:47:53.214Z,13.52
2019-03-03T08:53:24.673Z,13.02
2019-03-03T08:56:21.047Z,12.86
2019-03-03T08:59:03.371Z,12.69
2019-03-03T09:01:49.616Z,12.74
2019-03-03T09:04:47.767Z,12.84
2019-03-03T09:07:30.849Z,12.78
2019-03-03T09:10:25.392Z,12.88
2019-03-03T09:13:14.973Z,12.90
2019-03-03T09:16:09.628Z,12.83
2019-03-03T09:18:52.481Z,12.98
2019-03-03T09:21:48.612Z,13.13
2019-03-03T09:24:41.086Z,13.26
2019-03-03T09:27:42.935Z,13.22
2019-03-03T09:30:22.169Z,12.84
2019-03-03T09:33:13.347Z,12.61
2019-03-03T09:36:01.590Z,12.38
2019-03-03T09:38:44.347Z,12.16
2019-03-03T09:41:13.768Z,12.04
2019-03-03T09:44:01.308Z,12.03
2019-03-03T09:46:44.026Z,11.93
2019-03-03T09:49:33.494Z,11.94
2019-03-03T09:52:33.262Z,11.95
2019-03-03T09:55:12.661Z,11.89
2019-03-03T09:58:14.617Z,12.02
2019-03-03T10:01:09.554Z,12.08
2019-03-03T10:04:04.712Z,12.00
2019-03-03T10:06:44.512Z,12.01
2019-03-03T10:09:23.965Z,12.09
2019-03-03T10:12:07.835Z,12.17
2019-03-03T10:14:59.470Z,12.10
2019-03-03T10:17:56.772Z,12.00
2019-03-03T10:20:46.144Z,12.06
2019-03-03T10:23:27.500Z,12.10
2019-03-03T10:26:20.096Z,12.21
2019-03-03T10:29:09.077Z,12.38
2019-03-03T10:31:48.005Z,12.43
2019-03-03T10:34:28.321Z,12.50
2019-03-03T10:37:06.022Z,12.56
2019-03-03T10:39:56.334Z,12.54
2019-03-03T10:42:27.997Z,12.58
2019-03-03T10:45:06.439Z,12.65
2019-03-03T10:47:46.619Z,12.77
2019-03-03T10:50:27.005Z,12.85
2019-03-03T10:53:13.842Z,13.22
2019-03-03T10:55:53.698Z,13.26
2019-03-03T10:58:46.090Z,13.52
2019-03-03T11:01:24.385Z,13.66
2019-03-03T11:04:04.839Z,13.60
2019-03-03T11:06:38.961Z,14.08
2019-03-03T11:09:23.526Z,14.23
2019-03-03T11:12:13.919Z,13.89
2019-03-03T11:14:45.077Z,13.97
2019-03-03T11:17:44.654Z,13.53
2019-03-03T11:20:26.679Z,13.26
2019-03-03T11:23:04.718Z,13.17
2019-03-03T11:25:50.697Z,13.00
2019-03-03T11:31:23.623Z,12.93
2019-03-03T11:34:17.133Z,12.88
2019-03-03T11:36:52.935Z,12.79
2019-03-03T11:39:29.443Z,12.70
2019-03-03T11:42:13.385Z,12.84
2019-03-03T11:44:58.052Z,13.04
2019-03-03T11:48:04.745Z,12.94
2019-03-03T11:50:46.822Z,12.90
2019-03-03T11:53:41.552Z,12.88
2019-03-03T11:56:24.174Z,12.87
2019-03-03T11:59:10.593Z,12.95
2019-03-03T12:02:01.080Z,13.05
2019-03-03T12:04:43.681Z,13.17
2019-03-03T12:07:48.571Z,13.11
2019-03-03T12:10:39.903Z,13.19
2019-03-03T12:13:36.497Z,13.24
2019-03-03T12:16:36.251Z,13.45
2019-03-03T12:19:25.106Z,13.78
2019-03-03T12:22:03.707Z,14.01
2019-03-03T12:24:34.823Z,14.01
2019-03-03T12:27:17.991Z,14.14
2019-03-03T12:29:55.076Z,14.39
2019-03-03T12:32:26.591Z,14.36
2019-03-03T12:35:12.523Z,14.54
2019-03-03T12:37:55.204Z,14.52
2019-03-03T12:40:41.580Z,14.28
2019-03-03T12:43:15.313Z,13.92
2019-03-03T12:45:46.455Z,13.95
2019-03-03T12:48:33.749Z,14.06
2019-03-03T12:51:13.740Z,14.26
2019-03-03T12:54:01.023Z,14.27
2019-03-03T12:56:37.860Z,14.16
2019-03-03T12:59:26.824Z,13.93
2019-03-03T13:02:00.626Z,13.57
2019-03-03T13:04:43.932Z,13.40
2019-03-03T13:07:15.107Z,13.34
2019-03-03T13:10:01.564Z,13.49
2019-03-03T13:12:41.370Z,13.58
2019-03-03T13:15:15.209Z,13.64
2019-03-03T13:17:55.287Z,13.71
2019-03-03T13:20:35.752Z,13.85
2019-03-03T13:23:06.841Z,13.82
2019-03-03T13:25:46.742Z,13.70
2019-03-03T13:28:17.833Z,13.55
2019-03-03T13:31:05.478Z,13.52
2019-03-03T13:33:42.848Z,13.47
2019-03-03T13:36:16.799Z,13.46
2019-03-03T13:38:51.137Z,13.44
2019-03-03T13:41:22.258Z,13.48
2019-03-03T13:43:51.918Z,13.46
2019-03-03T13:46:22.240Z,13.52
2019-03-03T13:48:51.701Z,13.38
2019-03-03T13:51:21.160Z,13.39
2019-03-03T13:53:50.611Z,13.30
2019-03-03T13:56:20.365Z,13.32
2019-03-03T13:58:49.818Z,13.17
2019-03-03T14:01:19.505Z,13.16
2019-03-03T14:03:49.088Z,13.07
2019-03-03T14:06:18.878Z,13.00
2019-03-03T14:08:48.706Z,12.86
2019-03-03T14:11:29.189Z,12.61
2019-03-03T14:13:58.665Z,12.50
2019-03-03T14:16:28.312Z,12.39
2019-03-03T14:18:57.791Z,12.33
2019-03-03T14:21:27.321Z,12.30
2019-03-03T14:23:56.795Z,12.30
2019-03-03T14:26:26.261Z,12.33
2019-03-03T14:28:55.706Z,12.31
2019-03-03T14:31:26.360Z,12.40
2019-03-03T14:33:55.873Z,12.40
2019-03-03T14:36:25.326Z,12.39
2019-03-03T14:38:54.874Z,12.48
2019-03-03T14:41:24.340Z,12.54
2019-03-03T14:43:53.854Z,12.58
2019-03-03T14:46:23.339Z,12.72
2019-03-03T14:48:52.794Z,12.73
2019-03-03T14:51:22.327Z,12.69
2019-03-03T14:53:51.867Z,12.66
2019-03-03T14:56:21.343Z,12.61
2019-03-03T14:58:50.821Z,12.56
2019-03-03T15:01:20.426Z,12.52
2019-03-03T15:03:50.433Z,12.54
2019-03-03T15:06:24.455Z,12.52
2019-03-03T15:08:51.286Z,12.50
2019-03-03T15:11:20.749Z,12.53
2019-03-03T15:13:50.321Z,12.54
2019-03-03T15:16:19.798Z,12.55
2019-03-03T15:18:49.271Z,12.49
2019-03-03T15:21:25.221Z,12.46
2019-03-03T15:23:50.166Z,12.47
2019-03-03T15:26:20.497Z,12.47
2019-03-03T15:28:50.014Z,12.45
2019-03-03T15:31:19.837Z,12.42
2019-03-03T15:33:49.306Z,12.42
2019-03-03T15:36:18.761Z,12.38
2019-03-03T15:38:48.237Z,12.34
2019-03-03T15:41:17.710Z,12.35
2019-03-03T15:43:47.160Z,12.35
2019-03-03T15:46:16.655Z,12.29
2019-03-03T15:48:46.174Z,12.29
2019-03-03T15:51:15.938Z,12.28
2019-03-03T15:53:45.428Z,12.27
2019-03-03T15:56:14.880Z,12.23
2019-03-03T15:58:44.590Z,12.27
2019-03-03T16:01:14.926Z,12.25
2019-03-03T16:03:44.468Z,12.21
2019-03-03T16:06:13.910Z,12.17
2019-03-03T16:08:43.357Z,12.14
2019-03-03T16:11:12.808Z,12.13
2019-03-03T16:13:42.348Z,12.10
2019-03-03T16:16:11.856Z,12.07
2019-03-03T16:18:41.633Z,12.05
2019-03-03T16:21:11.098Z,12.03
2019-03-03T16:23:40.552Z,11.96
2019-03-03T16:26:10.039Z,11.94
2019-03-03T16:28:39.483Z,11.89
2019-03-03T16:31:09.440Z,11.84
2019-03-03T16:33:38.940Z,11.84
2019-03-03T16:36:08.411Z,11.80
2019-03-03T16:38:37.847Z,11.77
2019-03-03T16:41:07.301Z,11.74
2019-03-03T16:43:36.818Z,11.73
2019-03-03T16:46:06.281Z,11.71
2019-03-03T16:48:35.983Z,11.73
2019-03-03T16:51:05.826Z,11.72
2019-03-03T16:53:35.290Z,11.70
2019-03-03T16:56:04.998Z,11.70
2019-03-03T16:58:34.865Z,11.65
2019-03-03T17:01:12.249Z,11.65
2019-03-03T17:03:45.429Z,11.66
2019-03-03T17:06:22.298Z,11.62
2019-03-03T17:08:57.690Z,11.62
2019-03-03T17:11:37.851Z,11.60
2019-03-03T17:14:10.625Z,11.62
2019-03-03T17:16:41.938Z,11.57
2019-03-03T17:19:15.930Z,11.61
2019-03-03T17:21:51.171Z,11.56
2019-03-03T17:24:36.046Z,11.54
2019-03-03T17:27:29.911Z,11.50
2019-03-03T17:30:04.552Z,11.50
2019-03-03T17:32:38.160Z,11.48
2019-03-03T17:35:14.103Z,11.42
2019-03-03T17:37:57.114Z,11.37
2019-03-03T17:40:35.507Z,11.37
2019-03-03T17:43:11.255Z,11.24
2019-03-03T17:45:47.571Z,11.11
2019-03-03T17:48:18.099Z,10.97
2019-03-03T17:50:58.448Z,10.87
2019-03-03T17:53:35.482Z,10.84
2019-03-03T17:56:06.986Z,10.90
2019-03-03T17:58:47.392Z,10.97
2019-03-03T18:01:20.014Z,10.93
2019-03-03T18:03:54.660Z,10.87
2019-03-03T18:06:25.913Z,10.88
2019-03-03T18:08:55.365Z,10.88
2019-03-03T18:11:24.808Z,10.87
2019-03-03T18:13:54.298Z,10.82
2019-03-03T18:16:23.749Z,10.68
2019-03-03T18:18:53.198Z,10.50
2019-03-03T18:21:22.654Z,10.41
2019-03-03T18:23:52.137Z,10.37
2019-03-03T18:26:21.605Z,10.37
2019-03-03T18:28:51.066Z,10.36
2019-03-03T18:31:20.522Z,10.34
2019-03-03T18:33:49.983Z,10.33
2019-03-03T18:36:19.434Z,10.32
2019-03-03T18:38:49.366Z,10.34
2019-03-03T18:41:18.823Z,10.32
2019-03-03T18:43:48.313Z,10.32
2019-03-03T18:46:17.779Z,10.33
2019-03-03T18:48:47.235Z,10.31
2019-03-03T18:51:16.829Z,10.35
2019-03-03T18:53:46.474Z,10.26
2019-03-03T18:56:16.018Z,10.27
2019-03-03T18:58:45.608Z,10.29
2019-03-03T19:01:15.128Z,10.40
2019-03-03T19:03:44.611Z,10.41
2019-03-03T19:06:14.129Z,10.32
2019-03-03T19:08:43.909Z,10.36
2019-03-03T19:11:13.443Z,10.41
2019-03-03T19:13:42.949Z,10.48
2019-03-03T19:16:12.813Z,10.45
2019-03-03T19:18:42.262Z,10.47
2019-03-03T19:21:11.751Z,10.51
2019-03-03T19:23:41.210Z,10.54
2019-03-03T19:26:10.665Z,10.56
2019-03-03T19:28:40.456Z,10.56
2019-03-03T19:31:09.922Z,10.59
2019-03-03T19:33:48.837Z,10.56
2019-03-03T19:36:18.290Z,10.55
2019-03-03T19:38:47.764Z,10.66
2019-03-03T19:41:17.395Z,10.73
2019-03-03T19:43:47.127Z,10.73
2019-03-03T19:46:16.595Z,10.74
2019-03-03T19:48:46.071Z,10.71
2019-03-03T19:51:15.531Z,10.76
2019-03-03T19:53:45.367Z,10.80
2019-03-03T19:56:14.820Z,10.80
2019-03-03T19:58:44.291Z,10.86
2019-03-03T20:01:13.728Z,10.86
2019-03-03T20:03:43.181Z,10.89
2019-03-03T20:06:12.635Z,10.89
2019-03-03T20:08:42.093Z,10.84
2019-03-03T20:11:11.623Z,10.88
2019-03-03T20:13:41.497Z,11.01
2019-03-03T20:16:11.028Z,11.01
2019-03-03T20:18:41.433Z,10.96
2019-03-03T20:21:10.860Z,10.96
2019-03-03T20:23:40.520Z,11.02
2019-03-03T20:26:09.973Z,11.15
2019-03-03T20:28:39.442Z,11.17
2019-03-03T20:31:09.372Z,11.25
2019-03-03T20:33:39.016Z,11.27
2019-03-03T20:36:08.602Z,11.26
2019-03-03T20:38:38.056Z,11.20
2019-03-03T20:41:07.551Z,11.15
2019-03-03T20:43:37.042Z,11.12
2019-03-03T20:46:06.479Z,11.03
2019-03-03T20:48:36.088Z,10.91
2019-03-03T20:51:05.537Z,11.03
2019-03-03T20:53:35.005Z,11.05
2019-03-03T20:56:04.450Z,10.99
2019-03-03T20:58:33.920Z,10.97
2019-03-03T21:01:03.770Z,10.97
2019-03-03T21:03:33.225Z,11.03
2019-03-03T21:06:02.688Z,11.02
2019-03-03T21:08:33.363Z,10.99
2019-03-03T21:11:02.994Z,11.08
2019-03-03T21:13:32.447Z,11.10
2019-03-03T21:16:02.356Z,11.08
2019-03-03T21:18:31.828Z,11.15
2019-03-03T21:21:01.318Z,11.16
2019-03-03T21:23:30.839Z,11.17
2019-03-03T21:26:00.349Z,11.14
2019-03-03T21:28:29.848Z,11.22
2019-03-03T21:30:59.592Z,11.27
2019-03-03T21:33:29.169Z,11.40
2019-03-03T21:35:58.628Z,11.42
2019-03-03T21:38:28.226Z,11.44
2019-03-03T21:40:57.686Z,11.46
2019-03-03T21:43:27.517Z,11.42
2019-03-03T21:45:57.453Z,11.39
2019-03-03T21:48:27.010Z,11.35
2019-03-03T21:50:56.462Z,11.34
2019-03-03T21:53:25.956Z,11.29
2019-03-03T21:55:55.468Z,11.26
2019-03-03T21:58:25.125Z,11.17
2019-03-03T22:00:54.643Z,11.27
2019-03-03T22:03:24.187Z,11.28
2019-03-03T22:05:53.657Z,11.24
2019-03-03T22:08:23.233Z,11.26
2019-03-03T22:10:52.711Z,11.36
2019-03-03T22:13:22.223Z,11.32
2019-03-03T22:15:51.682Z,11.29
2019-03-03T22:18:21.126Z,11.34
2019-03-03T22:20:50.579Z,11.31
2019-03-03T22:23:20.033Z,11.30
2019-03-03T22:25:51.613Z,11.42
2019-03-03T22:28:21.075Z,11.46
2019-03-03T22:30:50.625Z,11.42
2019-03-03T22:33:20.080Z,11.38
2019-03-03T22:35:49.530Z,11.38
2019-03-03T22:38:21.150Z,11.42
2019-03-03T22:40:50.199Z,11.49
2019-03-03T22:43:19.648Z,11.51
2019-03-03T22:45:49.113Z,11.46
2019-03-03T22:48:18.559Z,11.48
2019-03-03T22:50:48.021Z,11.52
2019-03-03T22:53:17.472Z,11.52
2019-03-03T22:55:46.917Z,11.51
2019-03-03T22:58:16.422Z,11.49
2019-03-03T23:04:08.605Z,11.42
2019-03-03T23:06:47.064Z,11.47
2019-03-03T23:09:22.632Z,11.43
2019-03-03T23:12:16.475Z,11.43
2019-03-03T23:14:55.108Z,11.37
2019-03-03T23:17:40.098Z,11.39
2019-03-03T23:20:13.122Z,11.37
2019-03-03T23:22:51.419Z,11.42
2019-03-03T23:25:36.070Z,11.39
2019-03-03T23:28:07.400Z,11.39
2019-03-03T23:30:37.048Z,11.39
2019-03-03T23:33:06.479Z,11.41
2019-03-03T23:35:35.953Z,11.45
2019-03-03T23:38:05.765Z,11.50
2019-03-03T23:40:35.412Z,11.52
2019-03-03T23:43:04.881Z,11.45
2019-03-03T23:45:34.590Z,11.46
2019-03-03T23:48:04.103Z,11.49
2019-03-03T23:50:34.098Z,11.48
2019-03-03T23:53:03.543Z,11.46
2019-03-03T23:55:33.018Z,11.45
2019-03-03T23:58:02.501Z,11.40
